CST,Max TemperatureF,Mean TemperatureF,Min TemperatureF,Max Dew PointF,MeanDew PointF,Min DewpointF,Max Humidity, Mean Humidity, Min Humidity, Max Sea Level PressureIn, Mean Sea Level PressureIn, Min Sea Level PressureIn, Max VisibilityMiles, Mean VisibilityMiles, Min VisibilityMiles, Max Wind SpeedMPH, Mean Wind SpeedMPH, Max Gust SpeedMPH,PrecipitationIn, CloudCover, Events, WindDirDegrees
2014-1-1,1,0,-2,-2,-7,-9,85,74,66,30.34,30.26,30.15,10,8,1,22,17,25,0.00,8,Rain-Snow,28
2014-1-2,1,-4,-9,-8,-12,-17,77,70,55,30.40,30.36,30.30,10,10,9,13,9,,0.00,1,,14
2014-1-3,32,13,-4,27,10,-9,86,78,66,30.30,29.80,29.48,10,9,5,34,19,41,0.00,2,Snow,191
2014-1-4,37,20,3,32,11,-4,93,77,62,30.18,29.90,29.52,10,10,7,32,19,43,0.00,5,Snow,335
2014-1-5,3,-6,-14,-6,-16,-27,72,57,45,30.39,30.31,30.19,10,10,7,33,21,40,0.00,3,,336
2014-1-6,-5,-10,-16,-17,-22,-29,71,61,53,30.35,30.29,30.18,10,9,4,26,20,34,0.00,2,,296
2014-1-7,14,2,-9,3,-4,-18,79,66,57,30.20,30.10,30.01,10,10,10,10,6,,0.00,6,Snow,96
2014-1-8,10,6,3,3,-1,-4,79,71,62,30.37,30.32,30.20,10,10,9,15,6,,0.00,6,,88
2014-1-9,28,16,5,21,10,0,100,79,64,30.31,30.08,29.87,10,8,0,21,13,25,0.00,4,Fog,169
2014-1-10,30,26,21,30,28,21,100,100,100,29.85,29.63,29.51,3,1,0,16,8,48,0.00,8,Fog-Snow,242
2014-1-11,28,24,19,28,23,18,100,99,93,29.75,29.65,29.52,10,7,1,26,14,33,0.00,3,,268
2014-1-12,41,32,23,36,31,21,93,81,70,29.62,29.49,29.39,10,10,10,28,16,37,0.00,3,,238
2014-1-13,39,32,24,32,25,21,93,73,49,29.76,29.66,29.53,10,10,9,22,15,32,0.00,3,,267
2014-1-14,41,28,15,34,17,7,86,70,50,30.14,29.90,29.50,10,9,2,40,24,54,0.00,7,Snow,317
2014-1-15,35,19,3,27,10,-2,92,70,54,30.15,29.92,29.59,10,10,9,23,13,31,0.01,5,Snow,251
2014-1-16,39,22,6,28,16,-2,93,73,56,29.95,29.73,29.58,10,7,0,37,23,50,0.00,7,Rain-Snow,314
2014-1-17,23,12,1,10,0,-8,72,61,49,30.06,29.98,29.74,10,10,9,25,18,34,0.00,3,,286
2014-1-18,35,22,10,34,19,9,100,83,54,30.01,29.75,29.50,10,8,0,37,20,46,0.00,5,Rain-Snow,294
2014-1-19,55,35,15,34,25,14,93,72,36,29.88,29.71,29.57,10,10,10,30,15,38,0.00,0,,269
2014-1-20,39,18,-5,32,19,-13,100,86,65,30.42,30.01,29.78,10,8,1,31,15,41,0.00,4,Rain-Snow,309
2014-1-21,14,0,-13,3,-9,-20,73,65,57,30.44,30.23,29.98,10,10,2,17,11,24,0.00,3,Snow,235
2014-1-22,17,5,-7,12,-1,-17,86,70,56,30.51,30.17,29.97,10,9,3,32,18,38,0.00,5,Snow,326
2014-1-23,6,-2,-11,-4,-12,-18,71,65,52,30.73,30.59,30.31,10,10,9,21,16,29,0.00,2,,292
2014-1-24,41,24,6,36,17,-8,93,65,48,30.28,29.83,29.60,10,10,6,26,21,34,0.00,5,,259
2014-1-25,35,24,14,32,10,-4,93,60,38,30.01,29.80,29.39,10,10,4,29,19,44,0.00,4,Rain-Snow,307
2014-1-26,42,20,-2,32,15,-15,93,65,51,30.21,29.67,29.37,10,10,2,45,25,62,0.00,6,Rain-Snow,314
2014-1-27,1,-4,-9,-11,-16,-18,71,56,43,30.42,30.36,30.21,10,10,3,28,17,38,0.00,2,Snow,316
2014-1-28,12,2,-9,-8,-13,-17,72,56,34,30.38,30.28,30.14,10,10,10,23,10,28,0.00,0,,271
2014-1-29,41,20,-2,10,1,-13,66,44,22,30.14,29.85,29.52,10,10,10,30,14,38,0.00,0,,212
2014-1-30,35,20,6,30,10,0,100,68,33,30.06,29.68,29.34,10,8,1,32,20,43,0.00,5,Snow,294
2014-1-31,19,11,3,5,0,-6,78,62,49,30.13,30.04,29.94,10,10,10,14,7,18,0.00,2,,144